Time;durP1;ratioP1;P1;durP2;ratioP2;P2;SDS_P1;SDS_P2;PMS_P1;PMS_P2;Temp;Humidity;BMP_temperature;BMP_pressure;BME280_temperature;BME280_humidity;BME280_pressure;Samples;Min_cycle;Max_cycle;Signal;HPM_P1;HPM_P2
2024/01/16 00:01:06;;;;;;;15.95;9.15;;;;;;;-0.24;100.00;100601.31;5004835;28;20497;-69
2024/01/16 00:03:32;;;;;;;18.85;8.95;;;;;;;-0.20;100.00;100606.13;4988255;28;20033;-70
2024/01/16 00:05:57;;;;;;;18.48;9.35;;;;;;;-0.30;100.00;100602.50;5005138;28;20117;-69
2024/01/16 00:08:23;;;;;;;23.65;10.63;;;;;;;-0.25;100.00;100602.22;5004722;28;20034;-69
2024/01/16 00:10:49;;;;;;;19.35;9.95;;;;;;;-0.21;100.00;100607.06;5000682;28;20034;-69
2024/01/16 00:13:15;;;;;;;22.90;9.90;;;;;;;-0.32;100.00;100606.03;5006489;28;20042;-69
2024/01/16 00:15:41;;;;;;;18.17;9.35;;;;;;;-0.26;100.00;100606.50;5001662;28;20563;-69
2024/01/16 00:18:08;;;;;;;17.15;9.13;;;;;;;-0.21;100.00;100614.72;5007216;28;20084;-70
2024/01/16 00:20:33;;;;;;;21.40;9.73;;;;;;;-0.26;100.00;100616.69;5005687;28;20084;-69
2024/01/16 00:22:59;;;;;;;23.90;10.27;;;;;;;-0.19;100.00;100612.03;5009550;28;20037;-69
2024/01/16 00:25:25;;;;;;;22.60;10.57;;;;;;;-0.27;100.00;100616.78;4979038;28;20038;-69
2024/01/16 00:27:51;;;;;;;21.60;11.13;;;;;;;-0.27;100.00;100617.59;5009359;28;20045;-69
2024/01/16 00:30:17;;;;;;;33.20;13.38;;;;;;;-0.34;100.00;100608.69;5007240;28;20127;-69
2024/01/16 00:32:42;;;;;;;25.15;13.35;;;;;;;-0.21;100.00;100611.31;5009721;28;20026;-69
2024/01/16 00:35:08;;;;;;;29.95;14.00;;;;;;;-0.22;100.00;100612.25;4989845;28;20416;-70
2024/01/16 00:37:36;;;;;;;41.20;16.90;;;;;;;-0.32;100.00;100611.13;4977300;28;20091;-69
2024/01/16 00:40:04;;;;;;;34.95;16.83;;;;;;;-0.34;100.00;100612.97;5007606;28;20044;-70
2024/01/16 00:42:30;;;;;;;34.03;17.60;;;;;;;-0.28;100.00;100613.44;5008035;28;20639;-69
2024/01/16 00:44:55;;;;;;;33.47;16.08;;;;;;;-0.23;100.00;100615.69;5006706;28;20071;-69
2024/01/16 00:47:21;;;;;;;34.90;17.08;;;;;;;-0.25;100.00;100614.97;4989206;28;20045;-69
2024/01/16 00:49:47;;;;;;;40.60;17.63;;;;;;;-0.34;100.00;100625.69;4990335;28;20036;-70
2024/01/16 00:52:12;;;;;;;41.97;16.88;;;;;;;-0.40;100.00;100632.81;4991769;28;20038;-68
2024/01/16 00:54:39;;;;;;;39.88;17.35;;;;;;;-0.30;100.00;100629.69;5009622;28;20060;-69
2024/01/16 00:57:04;;;;;;;44.75;17.42;;;;;;;-0.24;100.00;100629.38;5004671;28;20045;-69
2024/01/16 00:59:30;;;;;;;38.63;16.52;;;;;;;-0.25;100.00;100637.91;4991056;28;20034;-69
2024/01/16 01:01:55;;;;;;;38.42;16.48;;;;;;;-0.31;100.00;100634.00;5003610;28;20034;-69
2024/01/16 01:04:21;;;;;;;31.20;15.85;;;;;;;-0.28;100.00;100635.56;4987768;28;20485;-69
2024/01/16 01:06:46;;;;;;;33.28;16.98;;;;;;;-0.43;100.00;100639.81;4990339;28;20511;-69
2024/01/16 01:09:12;;;;;;;37.78;14.82;;;;;;;-0.44;100.00;100640.72;5003992;28;20033;-69
2024/01/16 01:11:38;;;;;;;26.30;14.63;;;;;;;-0.28;100.00;100633.81;4990362;28;20037;-69
2024/01/16 01:14:04;;;;;;;38.20;15.65;;;;;;;-0.32;100.00;100640.00;5002060;28;20479;-70
2024/01/16 01:16:29;;;;;;;22.98;12.15;;;;;;;-0.24;100.00;100640.38;4982763;28;20053;-69
2024/01/16 01:18:55;;;;;;;33.47;12.60;;;;;;;-0.33;100.00;100637.53;4985696;28;20045;-70
2024/01/16 01:21:20;;;;;;;22.60;11.32;;;;;;;-0.26;100.00;100637.09;4989105;28;20034;-69
2024/01/16 01:23:46;;;;;;;20.10;11.05;;;;;;;-0.27;100.00;100644.81;5005809;28;20436;-69
2024/01/16 01:26:13;;;;;;;27.55;11.63;;;;;;;-0.28;100.00;100655.94;5004193;28;20041;-69
2024/01/16 01:28:40;;;;;;;26.15;11.93;;;;;;;-0.26;100.00;100649.03;5002026;28;20095;-68
2024/01/16 01:31:08;;;;;;;21.27;10.63;;;;;;;-0.27;100.00;100653.28;5004234;28;21116;-69
2024/01/16 01:33:33;;;;;;;30.25;11.82;;;;;;;-0.25;100.00;100648.09;5002255;28;20083;-69
2024/01/16 01:35:59;;;;;;;22.00;12.10;;;;;;;-0.35;100.00;100662.28;5003233;28;20037;-69
2024/01/16 01:38:24;;;;;;;24.65;12.93;;;;;;;-0.40;100.00;100653.19;5007939;28;20041;-69
2024/01/16 01:40:50;;;;;;;32.78;14.60;;;;;;;-0.37;100.00;100653.94;4986021;28;20049;-69
2024/01/16 01:43:25;;;;;;;26.27;14.35;;;;;;;-0.34;100.00;100661.38;5001351;28;20030;-70
2024/01/16 01:46:08;;;;;;;38.83;16.52;;;;;;;-0.32;100.00;100657.84;4984354;28;20412;-69
2024/01/16 01:48:34;;;;;;;33.97;16.42;;;;;;;-0.25;100.00;100664.19;5002440;28;20033;-69
2024/01/16 01:51:01;;;;;;;34.08;16.10;;;;;;;-0.31;100.00;100659.47;4982681;28;20033;-69
2024/01/16 01:53:28;;;;;;;32.55;15.55;;;;;;;-0.24;100.00;100658.22;4987177;28;20041;-69
2024/01/16 01:55:54;;;;;;;33.35;17.00;;;;;;;-0.29;100.00;100660.19;5003628;28;20087;-69
2024/01/16 01:58:20;;;;;;;33.63;16.55;;;;;;;-0.26;100.00;100667.69;4999989;28;20034;-69
2024/01/16 02:00:46;;;;;;;31.67;16.30;;;;;;;-0.26;100.00;100670.22;5001832;28;20037;-69
2024/01/16 02:03:12;;;;;;;34.92;16.88;;;;;;;-0.32;100.00;100672.28;4987366;28;20499;-69
2024/01/16 02:05:39;;;;;;;37.05;17.00;;;;;;;-0.28;100.00;100673.78;5001225;28;20108;-69
2024/01/16 02:08:05;;;;;;;39.00;17.70;;;;;;;-0.33;100.00;100668.13;5003719;28;20799;-69
2024/01/16 02:10:31;;;;;;;30.95;16.77;;;;;;;-0.27;100.00;100677.94;4981873;28;20121;-69
2024/01/16 02:12:57;;;;;;;36.95;17.40;;;;;;;-0.24;100.00;100670.94;4986283;28;20042;-69
2024/01/16 02:15:26;;;;;;;41.80;17.38;;;;;;;-0.31;100.00;100679.03;4985279;28;20111;-69
2024/01/16 02:17:51;;;;;;;38.83;17.25;;;;;;;-0.30;100.00;100690.84;5007586;28;20030;-69
2024/01/16 02:20:17;;;;;;;37.60;18.30;;;;;;;-0.32;100.00;100679.94;5002214;28;20480;-69
2024/01/16 02:22:47;;;;;;;34.90;17.52;;;;;;;-0.31;100.00;100681.59;5005720;28;20038;-69
2024/01/16 02:25:13;;;;;;;38.97;18.55;;;;;;;-0.24;100.00;100687.97;5002608;28;20084;-69
2024/01/16 02:27:38;;;;;;;35.80;17.85;;;;;;;-0.26;100.00;100682.16;4986702;28;20041;-69
2024/01/16 02:30:06;;;;;;;44.15;18.77;;;;;;;-0.36;100.00;100684.38;4989581;28;20042;-70
2024/01/16 02:32:31;;;;;;;40.13;18.75;;;;;;;-0.27;100.00;100672.84;4995539;28;20030;-69
2024/01/16 02:34:57;;;;;;;43.42;18.88;;;;;;;-0.29;100.00;100667.84;4998012;28;20044;-70
2024/01/16 02:37:23;;;;;;;37.22;18.60;;;;;;;-0.25;100.00;100666.75;4981026;28;20041;-69
2024/01/16 02:39:48;;;;;;;34.15;17.85;;;;;;;-0.42;100.00;100666.91;5001476;28;20034;-69
2024/01/16 02:42:13;;;;;;;42.72;20.20;;;;;;;-0.42;100.00;100669.47;5003543;28;20029;-70
2024/01/16 02:44:40;;;;;;;44.78;19.73;;;;;;;-0.48;100.00;100669.81;5003882;28;20516;-70
2024/01/16 02:47:07;;;;;;;35.17;19.30;;;;;;;-0.48;100.00;100660.44;5001086;28;20033;-70
2024/01/16 02:49:33;;;;;;;40.40;19.05;;;;;;;-0.45;100.00;100674.75;5004902;28;20484;-69
2024/01/16 02:51:58;;;;;;;36.50;16.38;;;;;;;-0.45;100.00;100669.66;5003454;28;20040;-69
2024/01/16 02:54:24;;;;;;;39.17;17.00;;;;;;;-0.43;100.00;100672.94;4986576;28;20085;-69
2024/01/16 02:56:49;;;;;;;40.22;18.38;;;;;;;-0.43;100.00;100670.38;4980758;28;20041;-69
2024/01/16 02:59:15;;;;;;;36.53;16.45;;;;;;;-0.42;100.00;100669.47;5001127;28;20053;-69
2024/01/16 03:01:41;;;;;;;31.98;16.42;;;;;;;-0.47;100.00;100668.91;4999087;28;20030;-69
2024/01/16 03:04:06;;;;;;;31.92;17.55;;;;;;;-0.46;100.00;100656.06;5003985;28;20030;-69
2024/01/16 03:06:32;;;;;;;39.97;16.25;;;;;;;-0.52;100.00;100666.63;4983619;28;20038;-69
2024/01/16 03:08:57;;;;;;;31.60;16.15;;;;;;;-0.48;100.00;100667.28;4984692;28;20500;-70
2024/01/16 03:11:23;;;;;;;36.67;16.08;;;;;;;-0.47;100.00;100667.19;4984345;28;20038;-69
2024/01/16 03:13:49;;;;;;;32.13;15.55;;;;;;;-0.47;100.00;100663.81;5003438;28;20096;-69
2024/01/16 03:16:15;;;;;;;24.63;13.73;;;;;;;-0.44;100.00;100661.09;4998449;28;20459;-70
2024/01/16 03:18:41;;;;;;;29.58;13.95;;;;;;;-0.45;100.00;100662.81;5000315;28;20025;-69
2024/01/16 03:21:07;;;;;;;33.03;14.00;;;;;;;-0.38;100.00;100658.19;4983921;28;20515;-69
2024/01/16 03:23:33;;;;;;;28.52;13.25;;;;;;;-0.36;100.00;100665.75;4984721;28;20034;-69
2024/01/16 03:25:58;;;;;;;23.08;12.32;;;;;;;-0.39;100.00;100664.19;4999815;28;20044;-69
2024/01/16 03:28:24;;;;;;;19.77;11.32;;;;;;;-0.48;100.00;100660.44;5000423;28;20049;-69
2024/01/16 03:30:49;;;;;;;24.90;12.40;;;;;;;-0.47;100.00;100654.47;5001647;28;20038;-69
2024/01/16 03:33:15;;;;;;;25.05;11.63;;;;;;;-0.48;100.00;100662.19;4982074;28;20436;-69
2024/01/16 03:35:40;;;;;;;26.38;12.20;;;;;;;-0.40;100.00;100660.84;5000265;28;20041;-69
2024/01/16 03:38:06;;;;;;;31.95;11.40;;;;;;;-0.53;100.00;100651.44;5000158;28;20057;-69
2024/01/16 03:40:34;;;;;;;19.42;11.75;;;;;;;-0.48;100.00;100664.72;4999616;28;20034;-69
2024/01/16 03:43:05;;;;;;;36.08;16.05;;;;;;;-0.46;100.00;100653.53;4983422;28;20050;-70
2024/01/16 03:45:30;;;;;;;43.25;18.38;;;;;;;-0.61;100.00;100660.31;4982453;28;20034;-69
2024/01/16 03:47:56;;;;;;;29.40;13.73;;;;;;;-0.64;100.00;100654.56;4969762;28;20045;-69
2024/01/16 03:50:21;;;;;;;35.45;16.55;;;;;;;-0.63;100.00;100663.88;4998863;28;20045;-69
2024/01/16 03:52:47;;;;;;;67.68;27.13;;;;;;;-0.68;100.00;100656.50;5001824;28;20554;-69
2024/01/16 03:55:12;;;;;;;82.45;29.92;;;;;;;-0.69;100.00;100667.59;5002539;28;20053;-70
2024/01/16 03:57:38;;;;;;;42.97;17.77;;;;;;;-0.56;100.00;100656.72;4987782;28;20061;-69
2024/01/16 04:00:05;;;;;;;29.20;16.20;;;;;;;-0.52;100.00;100658.16;5003163;28;20029;-69
2024/01/16 04:02:31;;;;;;;44.83;23.27;;;;;;;-0.52;100.00;100656.44;5006524;28;20160;-69
2024/01/16 04:04:56;;;;;;;51.08;24.90;;;;;;;-0.55;100.00;100659.16;5004922;28;20048;-69
2024/01/16 04:07:26;;;;;;;29.73;17.00;;;;;;;-0.53;100.00;100664.16;5003209;28;20049;-69
2024/01/16 04:09:52;;;;;;;29.95;14.57;;;;;;;-0.53;100.00;100659.88;5002065;28;20038;-68
2024/01/16 04:12:17;;;;;;;48.03;23.27;;;;;;;-0.49;100.00;100656.28;5004205;28;20041;-69
2024/01/16 04:14:43;;;;;;;41.90;20.58;;;;;;;-0.59;100.00;100657.69;4987778;28;20038;-69
2024/01/16 04:17:08;;;;;;;26.40;14.80;;;;;;;-0.61;100.00;100659.50;5001036;28;20093;-69
2024/01/16 04:19:33;;;;;;;28.90;12.90;;;;;;;-0.68;100.00;100661.59;4987725;28;20030;-69
2024/01/16 04:22:00;;;;;;;32.92;14.60;;;;;;;-0.66;100.00;100649.59;5002212;28;20408;-69
2024/01/16 04:24:27;;;;;;;33.45;13.40;;;;;;;-0.67;100.00;100652.22;5002522;28;20100;-70
2024/01/16 04:26:52;;;;;;;32.58;13.18;;;;;;;-0.61;100.00;100662.88;4983641;28;20088;-68
2024/01/16 04:29:18;;;;;;;27.85;14.57;;;;;;;-0.72;100.00;100666.94;5001957;28;20073;-69
2024/01/16 04:31:43;;;;;;;26.63;13.63;;;;;;;-0.70;100.00;100658.28;5002872;28;20033;-68
2024/01/16 04:34:09;;;;;;;30.77;13.90;;;;;;;-0.52;100.00;100658.16;5001566;28;20046;-69
2024/01/16 04:36:35;;;;;;;35.97;13.90;;;;;;;-0.57;100.00;100658.41;5003128;28;20045;-69
2024/01/16 04:39:00;;;;;;;33.70;14.00;;;;;;;-0.63;100.00;100672.31;5010951;28;20034;-69
2024/01/16 04:41:26;;;;;;;34.70;12.90;;;;;;;-0.64;100.00;100663.06;4989138;28;20404;-69
2024/01/16 04:43:51;;;;;;;35.13;12.48;;;;;;;-0.64;100.00;100668.16;5008854;28;20556;-69
2024/01/16 04:46:16;;;;;;;37.78;14.23;;;;;;;-0.63;100.00;100663.88;5007834;28;20053;-69
2024/01/16 04:48:42;;;;;;;32.25;13.43;;;;;;;-0.57;100.00;100663.50;4990988;28;20034;-69
2024/01/16 04:51:08;;;;;;;28.27;12.90;;;;;;;-0.63;100.00;100664.69;4987865;28;20034;-69
2024/01/16 04:53:33;;;;;;;31.48;13.43;;;;;;;-0.64;100.00;100669.84;5008716;28;20658;-69
2024/01/16 04:55:59;;;;;;;31.77;13.52;;;;;;;-0.62;100.00;100668.88;4989560;28;20049;-70
2024/01/16 04:58:24;;;;;;;34.38;12.73;;;;;;;-0.67;100.00;100665.78;5008246;28;20048;-69
2024/01/16 05:00:50;;;;;;;30.52;12.32;;;;;;;-0.63;100.00;100664.69;5006788;28;20473;-69
2024/01/16 05:03:15;;;;;;;29.52;13.02;;;;;;;-0.67;100.00;100667.50;5009801;28;20045;-69
2024/01/16 05:05:41;;;;;;;27.92;12.48;;;;;;;-0.64;100.00;100662.22;4990701;28;20042;-69
2024/01/16 05:08:06;;;;;;;32.90;12.32;;;;;;;-0.74;100.00;100661.91;5007327;28;20096;-70
2024/01/16 05:10:32;;;;;;;36.00;11.90;;;;;;;-0.76;100.00;100657.84;4989981;28;20053;-68
2024/01/16 05:12:58;;;;;;;28.50;11.30;;;;;;;-0.82;100.00;100656.44;4990262;28;20030;-69
2024/01/16 05:15:23;;;;;;;28.55;11.93;;;;;;;-0.74;100.00;100656.03;4990366;28;21306;-68
2024/01/16 05:17:49;;;;;;;34.20;10.80;;;;;;;-0.84;100.00;100651.44;4993350;28;20034;-69
2024/01/16 05:20:14;;;;;;;24.92;9.73;;;;;;;-0.84;100.00;100648.88;5006373;28;20030;-69
2024/01/16 05:22:40;;;;;;;23.98;9.85;;;;;;;-0.88;100.00;100649.97;4991714;28;20030;-69
2024/01/16 05:25:07;;;;;;;22.60;8.73;;;;;;;-0.67;100.00;100649.69;5007937;28;20708;-69
2024/01/16 05:27:33;;;;;;;28.88;8.45;;;;;;;-0.88;100.00;100647.44;4989215;28;20038;-69
2024/01/16 05:29:58;;;;;;;22.35;8.88;;;;;;;-0.91;100.00;100650.13;5006583;28;20045;-69
2024/01/16 05:32:24;;;;;;;27.83;9.25;;;;;;;-0.90;100.00;100639.06;4988841;28;20045;-70
2024/01/16 05:34:50;;;;;;;21.65;7.82;;;;;;;-0.92;100.00;100648.50;5007062;28;20061;-69
2024/01/16 05:37:15;;;;;;;24.05;8.07;;;;;;;-0.88;100.00;100641.53;5006569;28;20042;-69
2024/01/16 05:39:41;;;;;;;20.38;6.70;;;;;;;-0.89;100.00;100635.59;5010049;28;20049;-68
2024/01/16 05:42:06;;;;;;;23.33;7.55;;;;;;;-0.92;100.00;100640.03;5005889;28;20124;-69
2024/01/16 05:44:32;;;;;;;29.13;9.93;;;;;;;-1.02;100.00;100635.47;5004504;28;20459;-68
2024/01/16 05:46:57;;;;;;;21.45;7.50;;;;;;;-1.12;100.00;100636.88;5006458;28;20034;-69
2024/01/16 05:49:23;;;;;;;19.08;6.53;;;;;;;-1.17;100.00;100633.75;4994315;28;20388;-69
2024/01/16 05:51:48;;;;;;;20.23;7.47;;;;;;;-1.20;100.00;100628.84;5006639;28;20042;-69
2024/01/16 05:54:14;;;;;;;21.75;6.93;;;;;;;-1.23;100.00;100627.28;5006402;28;20091;-69
2024/01/16 05:56:39;;;;;;;23.95;6.18;;;;;;;-1.19;100.00;100616.06;5006804;28;20045;-69
2024/01/16 05:59:06;;;;;;;20.15;6.32;;;;;;;-1.07;100.00;100624.72;5005379;28;20052;-69
2024/01/16 06:01:32;;;;;;;21.80;5.82;;;;;;;-1.18;100.00;100627.03;4992167;28;20448;-69
2024/01/16 06:03:58;;;;;;;15.75;6.47;;;;;;;-1.29;100.00;100625.09;4991067;28;20037;-69
2024/01/16 06:06:23;;;;;;;20.08;5.68;;;;;;;-1.26;100.00;100622.38;5004845;28;20034;-69
2024/01/16 06:08:49;;;;;;;15.82;5.32;;;;;;;-1.35;100.00;100622.06;4991957;28;20041;-69
2024/01/16 06:11:14;;;;;;;23.25;5.50;;;;;;;-1.40;100.00;100618.03;4988064;28;20034;-69
2024/01/16 06:13:40;;;;;;;26.95;5.70;;;;;;;-1.41;100.00;100620.69;5007482;28;20041;-69
2024/01/16 06:16:08;;;;;;;19.90;5.43;;;;;;;-1.39;100.00;100616.31;5003799;28;20099;-69
2024/01/16 06:18:34;;;;;;;22.92;6.18;;;;;;;-1.43;100.00;100618.22;5007135;28;20065;-69
2024/01/16 06:21:00;;;;;;;24.35;6.15;;;;;;;-1.47;100.00;100615.91;5006074;28;20041;-69
2024/01/16 06:23:25;;;;;;;17.77;5.78;;;;;;;-1.47;100.00;100610.81;4989569;28;23685;-68
2024/01/16 06:25:51;;;;;;;24.40;5.82;;;;;;;-1.42;100.00;100624.09;5005240;28;20045;-70
2024/01/16 06:28:16;;;;;;;23.75;5.70;;;;;;;-1.50;100.00;100616.09;5005024;28;20515;-69
2024/01/16 06:30:42;;;;;;;18.42;5.95;;;;;;;-1.47;100.00;100619.28;5004422;28;20044;-69
2024/01/16 06:33:07;;;;;;;22.70;5.70;;;;;;;-1.57;100.00;100621.47;5006456;28;20037;-68
2024/01/16 06:35:33;;;;;;;18.40;5.43;;;;;;;-1.52;100.00;100620.44;5005559;28;20049;-69
2024/01/16 06:37:58;;;;;;;24.88;5.25;;;;;;;-1.50;100.00;100621.97;5006702;28;20404;-69
2024/01/16 06:40:24;;;;;;;20.15;5.25;;;;;;;-1.59;100.00;100618.19;5002617;28;20049;-69
2024/01/16 06:42:49;;;;;;;17.13;5.95;;;;;;;-1.61;100.00;100624.28;4988983;28;21057;-69
2024/01/16 06:45:15;;;;;;;17.95;5.22;;;;;;;-1.69;100.00;100627.22;5002789;28;20033;-69
2024/01/16 06:47:41;;;;;;;19.67;5.40;;;;;;;-1.68;100.00;100633.94;4971664;28;20060;-68
2024/01/16 06:50:08;;;;;;;18.63;5.32;;;;;;;-1.78;100.00;100630.25;4991093;28;20034;-69
2024/01/16 06:52:33;;;;;;;22.60;5.38;;;;;;;-1.74;100.00;100630.91;5005392;28;20038;-69
2024/01/16 06:54:59;;;;;;;20.73;5.57;;;;;;;-1.73;100.00;100632.53;5006661;28;20095;-69
2024/01/16 06:57:24;;;;;;;16.25;4.85;;;;;;;-1.72;100.00;100642.66;4989155;28;20033;-69
2024/01/16 06:59:50;;;;;;;14.82;5.20;;;;;;;-1.76;100.00;100641.97;5005738;28;20049;-69
2024/01/16 07:02:15;;;;;;;17.75;4.47;;;;;;;-1.85;100.00;100642.47;5004337;28;20034;-69
2024/01/16 07:04:41;;;;;;;19.38;5.50;;;;;;;-1.88;100.00;100642.63;4993313;28;20033;-70
2024/01/16 07:07:06;;;;;;;24.85;5.55;;;;;;;-1.82;100.00;100642.31;5005544;28;20046;-69
2024/01/16 07:09:32;;;;;;;19.10;4.75;;;;;;;-1.69;100.00;100641.69;5003607;23;20018;-71
2024/01/16 07:11:57;;;;;;;20.55;6.15;;;;;;;-1.76;100.00;100652.16;4986832;28;20045;-71
2024/01/16 07:14:22;;;;;;;12.00;4.18;;;;;;;-1.77;100.00;100663.25;5007842;28;20044;-72
2024/01/16 07:16:49;;;;;;;29.50;6.63;;;;;;;-1.77;100.00;100660.69;5023549;28;20696;-72
2024/01/16 07:19:15;;;;;;;24.30;5.55;;;;;;;-1.86;100.00;100666.25;5008012;28;20538;-72
2024/01/16 07:21:40;;;;;;;13.40;4.72;;;;;;;-1.81;100.00;100663.47;4990403;28;20088;-71
2024/01/16 07:24:06;;;;;;;18.33;4.80;;;;;;;-1.87;100.00;100676.50;5010271;28;20030;-71
2024/01/16 07:26:31;;;;;;;21.45;5.03;;;;;;;-1.92;100.00;100664.03;5003237;28;20058;-72
2024/01/16 07:28:57;;;;;;;16.88;4.18;;;;;;;-1.91;100.00;100670.75;4991829;28;20034;-72
2024/01/16 07:31:23;;;;;;;16.83;4.13;;;;;;;-1.84;100.00;100674.63;5001539;28;20116;-71
2024/01/16 07:33:48;;;;;;;17.10;3.78;;;;;;;-1.88;100.00;100668.06;5009365;28;20037;-71
2024/01/16 07:36:14;;;;;;;9.50;3.80;;;;;;;-1.81;100.00;100671.09;5005928;28;20036;-71
2024/01/16 07:38:40;;;;;;;34.90;8.80;;;;;;;-1.83;100.00;100668.66;4994301;28;20056;-72
2024/01/16 07:41:06;;;;;;;23.92;4.85;;;;;;;-1.77;100.00;100678.50;5017130;28;20038;-72
2024/01/16 07:43:32;;;;;;;18.40;4.22;;;;;;;-1.79;100.00;100682.00;5027643;28;20072;-72
2024/01/16 07:45:57;;;;;;;26.42;4.25;;;;;;;-1.71;100.00;100681.59;5001886;28;20117;-71
2024/01/16 07:48:23;;;;;;;20.63;4.68;;;;;;;-1.63;100.00;100677.75;5013235;28;20029;-72
2024/01/16 07:50:49;;;;;;;11.80;4.43;;;;;;;-1.64;100.00;100682.91;4992547;28;20088;-71
2024/01/16 07:53:17;;;;;;;15.77;4.38;;;;;;;-1.75;100.00;100680.97;5001470;28;20066;-71
2024/01/16 07:55:43;;;;;;;17.25;4.40;;;;;;;-1.71;100.00;100689.22;5000584;28;20046;-72
2024/01/16 07:58:12;;;;;;;22.00;4.32;;;;;;;-1.72;100.00;100690.13;5003793;28;20483;-71
2024/01/16 08:00:37;;;;;;;15.60;4.03;;;;;;;-1.75;100.00;100693.69;5005542;28;20618;-72
2024/01/16 08:03:03;;;;;;;23.00;4.80;;;;;;;-1.69;100.00;100690.81;5014160;28;20033;-72
2024/01/16 08:05:30;;;;;;;16.52;4.32;;;;;;;-1.68;100.00;100694.97;5024075;28;20092;-72
2024/01/16 08:07:56;;;;;;;13.93;4.00;;;;;;;-1.68;100.00;100689.06;4993923;28;20061;-72
2024/01/16 08:10:22;;;;;;;17.30;4.53;;;;;;;-1.63;100.00;100685.38;5023672;28;20419;-72
2024/01/16 08:12:47;;;;;;;14.52;4.80;;;;;;;-1.62;100.00;100689.59;5005914;28;20033;-72
2024/01/16 08:15:13;;;;;;;19.80;3.88;;;;;;;-1.55;100.00;100687.53;5025181;28;20045;-72
2024/01/16 08:17:39;;;;;;;13.75;4.55;;;;;;;-1.57;100.00;100687.59;5026311;28;20046;-72
2024/01/16 08:20:05;;;;;;;16.30;4.35;;;;;;;-1.38;100.00;100692.53;5009767;28;20030;-72
2024/01/16 08:22:31;;;;;;;24.02;4.65;;;;;;;-1.42;100.00;100693.59;4993037;28;20054;-72
2024/01/16 08:24:56;;;;;;;19.92;4.63;;;;;;;-1.47;100.00;100698.13;5003472;28;20060;-71
2024/01/16 08:27:22;;;;;;;24.58;4.90;;;;;;;-1.49;100.00;100692.28;5007478;28;20038;-71
2024/01/16 08:29:49;;;;;;;17.08;4.65;;;;;;;-1.43;100.00;100694.53;5000011;28;20038;-71
2024/01/16 08:32:16;;;;;;;24.90;4.53;;;;;;;-1.41;100.00;100702.91;5004937;28;20046;-71
2024/01/16 08:34:42;;;;;;;18.50;4.55;;;;;;;-1.30;100.00;100699.78;5007587;28;20636;-72
2024/01/16 08:37:08;;;;;;;18.73;5.25;;;;;;;-1.27;100.00;100706.44;5018041;28;20037;-72
2024/01/16 08:39:34;;;;;;;18.38;5.28;;;;;;;-1.25;100.00;100707.16;5001918;28;20503;-71
2024/01/16 08:41:59;;;;;;;18.60;4.50;;;;;;;-1.29;100.00;100710.78;5022401;28;20038;-71
2024/01/16 08:44:25;;;;;;;21.23;4.85;;;;;;;-1.22;100.00;100707.81;5000875;28;20029;-71
2024/01/16 08:46:50;;;;;;;29.27;5.28;;;;;;;-1.32;100.00;100706.66;5010438;28;20037;-72
2024/01/16 08:49:16;;;;;;;19.40;5.35;;;;;;;-1.37;100.00;100709.47;5028405;28;20033;-71
2024/01/16 08:51:42;;;;;;;16.55;5.03;;;;;;;-1.28;100.00;100707.31;5010290;28;20033;-71
2024/01/16 08:54:07;;;;;;;24.60;7.18;;;;;;;-1.23;100.00;100700.25;5014404;28;20032;-71
2024/01/16 08:56:33;;;;;;;15.43;4.97;;;;;;;-1.27;100.00;100703.88;5015284;28;20049;-72
2024/01/16 08:58:58;;;;;;;20.15;4.38;;;;;;;-1.27;100.00;100694.50;5029238;28;20030;-71
2024/01/16 09:01:24;;;;;;;24.70;5.45;;;;;;;-1.18;100.00;100699.13;5022036;28;20570;-72
2024/01/16 09:03:49;;;;;;;18.98;5.55;;;;;;;-1.16;100.00;100693.94;5029173;28;20031;-71
2024/01/16 09:06:15;;;;;;;19.98;6.57;;;;;;;-1.18;100.00;100695.75;5001610;28;20072;-71
2024/01/16 09:08:40;;;;;;;18.83;6.20;;;;;;;-1.13;100.00;100696.34;5007906;28;20037;-72
2024/01/16 09:11:06;;;;;;;16.60;4.40;;;;;;;-1.10;100.00;100693.59;5010096;28;20060;-72
2024/01/16 09:13:31;;;;;;;17.77;5.47;;;;;;;-1.08;100.00;100696.06;5027378;28;20048;-71
2024/01/16 09:15:57;;;;;;;13.90;4.47;;;;;;;-1.10;100.00;100706.34;5024959;28;20045;-71
2024/01/16 09:18:22;;;;;;;16.48;5.30;;;;;;;-1.19;100.00;100707.66;5026302;28;20033;-72
2024/01/16 09:20:48;;;;;;;17.20;4.82;;;;;;;-1.16;100.00;100705.84;5011748;28;20033;-71
2024/01/16 09:23:14;;;;;;;15.95;5.32;;;;;;;-1.16;100.00;100704.13;5007104;28;20029;-72
2024/01/16 09:25:40;;;;;;;20.15;4.90;;;;;;;-1.18;100.00;100700.84;5024060;28;20041;-71
2024/01/16 09:28:06;;;;;;;28.80;5.93;;;;;;;-1.12;100.00;100705.59;5011500;28;20038;-71
2024/01/16 09:30:33;;;;;;;15.80;6.30;;;;;;;-1.22;100.00;100697.66;5023856;28;20094;-71
2024/01/16 09:32:58;;;;;;;14.35;4.40;;;;;;;-0.99;100.00;100696.38;5021671;28;20055;-72
2024/01/16 09:35:24;;;;;;;22.58;5.35;;;;;;;-0.99;99.70;100682.84;5009148;28;20534;-72
2024/01/16 09:37:50;;;;;;;22.17;5.78;;;;;;;-0.99;99.68;100686.19;5011979;28;20033;-72
2024/01/16 09:40:16;;;;;;;20.75;5.63;;;;;;;-1.10;99.89;100683.44;5027046;28;20086;-72
2024/01/16 09:42:42;;;;;;;17.20;5.03;;;;;;;-1.10;100.00;100685.16;4994642;28;20518;-72
2024/01/16 09:45:08;;;;;;;21.90;5.18;;;;;;;-1.12;100.00;100692.06;5025014;28;20036;-71
2024/01/16 09:47:36;;;;;;;22.70;5.47;;;;;;;-1.09;100.00;100695.25;5024463;28;20041;-71
2024/01/16 09:50:02;;;;;;;22.92;5.65;;;;;;;-1.11;100.00;100694.53;5010075;28;20503;-72
2024/01/16 09:52:29;;;;;;;16.95;5.47;;;;;;;-1.06;100.00;100697.63;5027779;28;20033;-72
2024/01/16 09:54:55;;;;;;;15.27;4.70;;;;;;;-0.99;100.00;100691.28;5009291;28;20415;-72
2024/01/16 09:57:25;;;;;;;20.20;5.57;;;;;;;-0.95;99.35;100693.69;5021784;28;20092;-72
2024/01/16 09:59:54;;;;;;;16.98;4.70;;;;;;;-0.95;99.03;100686.03;5024376;28;20037;-72
2024/01/16 10:02:23;;;;;;;18.73;4.90;;;;;;;-0.95;98.42;100689.41;5039346;28;20119;-71
2024/01/16 10:04:48;;;;;;;22.38;5.35;;;;;;;-0.94;99.08;100680.03;5027604;28;20104;-71
2024/01/16 10:07:15;;;;;;;15.13;4.80;;;;;;;-0.90;99.23;100674.72;5021269;28;20111;-72
2024/01/16 10:09:41;;;;;;;21.20;5.75;;;;;;;-0.93;99.02;100674.06;5025843;28;20092;-72
2024/01/16 10:12:07;;;;;;;20.98;5.63;;;;;;;-0.84;99.09;100676.09;5006151;28;20037;-71
2024/01/16 10:14:33;;;;;;;13.57;5.20;;;;;;;-0.78;98.31;100665.56;5022502;28;20029;-71
2024/01/16 10:17:12;;;;;;;22.27;5.93;;;;;;;-0.72;98.88;100667.75;4991731;28;20479;-72
2024/01/16 10:19:49;;;;;;;31.58;6.57;;;;;;;-0.85;98.33;100670.19;4990286;28;20033;-72
2024/01/16 10:22:24;;;;;;;18.95;5.50;;;;;;;-0.63;97.79;100669.78;5021105;28;20037;-72
2024/01/16 10:25:03;;;;;;;18.60;5.20;;;;;;;-0.66;97.67;100664.03;4994757;28;20033;-72
2024/01/16 10:27:31;;;;;;;22.65;5.45;;;;;;;-0.68;97.61;100661.59;5029818;28;20045;-72
2024/01/16 10:29:57;;;;;;;17.95;5.30;;;;;;;-0.68;97.75;100658.22;5021997;28;20104;-72
2024/01/16 10:32:30;;;;;;;16.40;5.53;;;;;;;-0.71;97.58;100656.66;4998610;28;20052;-72
2024/01/16 10:35:10;;;;;;;15.35;5.88;;;;;;;-0.66;98.58;100654.69;5008449;28;20049;-72
2024/01/16 10:37:50;;;;;;;13.90;5.35;;;;;;;-0.72;98.26;100655.00;5005757;28;20700;-71
2024/01/16 10:40:16;;;;;;;19.13;5.03;;;;;;;-0.71;97.40;100656.66;5018756;28;20108;-72
2024/01/16 10:42:43;;;;;;;17.90;5.38;;;;;;;-0.72;97.98;100660.09;5010702;28;20029;-72
2024/01/16 10:45:17;;;;;;;20.58;5.32;;;;;;;-0.70;96.46;100653.19;5022222;28;20111;-72
2024/01/16 10:47:43;;;;;;;20.08;5.95;;;;;;;-0.69;95.89;100654.84;5025086;28;20464;-72
2024/01/16 10:50:09;;;;;;;23.45;5.25;;;;;;;-0.67;96.58;100647.94;5017583;28;20037;-72
2024/01/16 10:52:38;;;;;;;21.08;4.97;;;;;;;-0.71;96.33;100643.94;5005269;28;20034;-72
2024/01/16 10:55:06;;;;;;;19.75;5.47;;;;;;;-0.64;96.27;100645.22;4991211;28;20112;-73
2024/01/16 10:57:32;;;;;;;16.85;5.85;;;;;;;-0.66;96.66;100648.75;4972594;28;20053;-72
2024/01/16 11:00:08;;;;;;;18.10;5.00;;;;;;;-0.67;96.74;100645.41;4998192;28;20034;-72
2024/01/16 11:03:07;;;;;;;15.18;4.75;;;;;;;-0.54;95.91;100639.63;5004887;28;20054;-72